Sparwood, Canada
Current Conditions -  °F | °C
As of 12:00 PM on Friday 31 Oct 2014 (Local Time) from CYXC Reporting Station
Haze Haze  
Wind Chill: 38°   Ceiling: 13000
Heat Index: 41°   Visibility: 5mi
Dew Point: 39°   Wind: 5mph
Humidity: 93%   Direction: 80°E
Pressure: 29.76"   Gusts: NA
Location:  49.72°N, 114.89°W
Report Text: CYXC 311800Z 08004KT 020V140 5SM BR SCT002 BKN130 BKN220 05/04 A2976 RMK FG2SF2AC1CI2 VIS N-E 1/12 SLP096
Loading
Personal Weather Stations






























Interactive Weather Map
Tropical Storm Tracking
New forecast layout! Learn more

10-Day Weather Forecast

Advertisements
Track Severe Weather on mobile